ASN logo
ASN Wikibase Occurrence # 214261
Last updated: 15 August 2018
This information is added by users of ASN. Neither ASN nor the Flight Safety Foundation are responsible for the completeness or correctness of this information. If you feel this information is incomplete or incorrect, you can submit corrected information.

Date:09-AUG-2018
Time:12:01 LT
Type:Silhouette image of generic BE58 model; specific model in this crash may look slightly different
Beechcraft G58 Baron
Owner/operator:Private
Registration: PH-CJX
C/n / msn: TH-2499
Fatalities:Fatalities: 2 / Occupants: 2
Other fatalities:0
Aircraft damage: Written off (damaged beyond repair)
Category:Accident
Location:Münster-Osnabrück Airport (EDDG) -   Germany
Phase: Landing
Nature:Training
Departure airport:Lelystad Airport (EHLE)
Destination airport:Münster-Osnabrück Airport (EDDG)
Investigating agency: BFU Germany
Narrative:
The Beechcraft G58 Baron departed Lelystad Airport, the Netherlands, at 11:04 on a (likely type rating) checkride to Münster-Osnabrück Airport, Germany. On board were a German instructor (59) and the Dutch owner of the aircraft (Bert Verwelius, 64).
The pilot carried out an approach to runway 07 at Münster-Osnabrück Airport and performed a go-around at 11:43 hours LT (09:43 UTC).
The aircraft crashed during a second approach to runway 07. Preliminary information suggests that the aircraft went off the runway and flipped over. It came to rest inverted close to the perimeter fence.
Airport operations were subsequently suspended until ca. 16.30h.

The aircraft was brand new and delivered from the factory on June 28, 2018, and operated on its sixth flight since delivery.

Weather about the accident time (12:01 LT/ 10:01Z)
EDDG 091020Z 06007KT 360V120 9999 FEW030 BKN063 25/16 Q1012 NOSIG
EDDG 090950Z 07007KT 020V120 9999 FEW030 BKN070 24/15 Q1012 NOSIG
EDDG 090920Z 05006KT 360V110 9999 FEW025 SCT120 BKN250 24/14 Q1013 NOSIG
EDDG 090850Z 04006KT 350V110 9999 -RA FEW025 SCT060 BKN090 23/13 Q1013 NOSIG

Sources:

http://www.wn.de/Muensterland/Kreis-Steinfurt/Greven/3426417-Kleinflugzeug-bei-Landeanflug-abgestuerzt-Zwei-Todesopfer-bei-Flugunglueck-am-FMO?_sp=6f5e60cf-dcdc-4289-a12f-e61a38002d80.1533814896183
https://www.destentor.nl/lelystad/twee-doden-bij-crash-vliegtuig-uit-lelystad-op-luchthaven-munster~a75acb58/
________________
https://www.flightradar24.com/data/aircraft/ph-cjx#1d701c0b
https://www.jetphotos.com/registration/PH-CJX


Images:



Revision history:

Date/timeContributorUpdates
09-Aug-2018 12:04 Aviation Added
09-Aug-2018 12:10 harro Updated [Time, Aircraft type, Cn, Total occupants, Plane category]
09-Aug-2018 12:32 Iceman 29 Updated [Operator, Other fatalities, Location, Departure airport, Destination airport, Source, Damage, Narrative, Photo, ]
09-Aug-2018 12:36 Iceman 29 Updated [Photo, ]
09-Aug-2018 12:41 Iceman 29 Updated [Departure airport]
09-Aug-2018 12:46 Iceman 29 Updated [Embed code]
09-Aug-2018 14:16 Flying Updated [Embed code, Damage]
09-Aug-2018 18:28 Aerossurance Updated [Location, Narrative]
10-Aug-2018 08:52 Chieftain Updated [Narrative]
10-Aug-2018 09:00 harro Updated [Destination airport, Narrative]
10-Aug-2018 09:06 harro Updated [Narrative]

Corrections or additions? ... Edit this accident description